sensor_id;sensor_type;location;lat;lon;timestamp;P1;durP1;ratioP1;P2;durP2;ratioP2
59310;SDS011;45078;51.654;21.250;2023-12-20T00:00:20;11.57;;;5.70;;
59310;SDS011;45078;51.654;21.250;2023-12-20T00:02:45;15.30;;;6.85;;
59310;SDS011;45078;51.654;21.250;2023-12-20T00:05:12;10.75;;;5.53;;
59310;SDS011;45078;51.654;21.250;2023-12-20T00:07:39;15.65;;;7.32;;
59310;SDS011;45078;51.654;21.250;2023-12-20T00:10:05;15.18;;;6.75;;
59310;SDS011;45078;51.654;21.250;2023-12-20T00:12:31;14.15;;;6.75;;
59310;SDS011;45078;51.654;21.250;2023-12-20T00:14:57;12.68;;;5.72;;
59310;SDS011;45078;51.654;21.250;2023-12-20T00:31:23;18.38;;;8.32;;
59310;SDS011;45078;51.654;21.250;2023-12-20T00:33:48;14.43;;;7.13;;
59310;SDS011;45078;51.654;21.250;2023-12-20T00:36:14;12.57;;;6.40;;
59310;SDS011;45078;51.654;21.250;2023-12-20T00:38:39;16.45;;;6.97;;
59310;SDS011;45078;51.654;21.250;2023-12-20T00:41:05;12.25;;;6.20;;
59310;SDS011;45078;51.654;21.250;2023-12-20T00:43:31;17.30;;;7.13;;
59310;SDS011;45078;51.654;21.250;2023-12-20T00:45:56;17.13;;;6.70;;
59310;SDS011;45078;51.654;21.250;2023-12-20T00:48:22;17.15;;;7.50;;
59310;SDS011;45078;51.654;21.250;2023-12-20T00:50:48;18.77;;;6.90;;
59310;SDS011;45078;51.654;21.250;2023-12-20T00:53:14;13.70;;;7.03;;
59310;SDS011;45078;51.654;21.250;2023-12-20T00:55:39;15.45;;;7.13;;
59310;SDS011;45078;51.654;21.250;2023-12-20T00:58:05;14.48;;;7.13;;
59310;SDS011;45078;51.654;21.250;2023-12-20T01:00:31;15.77;;;7.90;;
59310;SDS011;45078;51.654;21.250;2023-12-20T01:02:56;14.82;;;7.07;;
59310;SDS011;45078;51.654;21.250;2023-12-20T01:05:23;12.32;;;6.80;;
59310;SDS011;45078;51.654;21.250;2023-12-20T01:07:48;13.38;;;6.65;;
59310;SDS011;45078;51.654;21.250;2023-12-20T01:10:14;13.35;;;5.90;;
59310;SDS011;45078;51.654;21.250;2023-12-20T01:12:40;13.93;;;6.07;;
59310;SDS011;45078;51.654;21.250;2023-12-20T01:15:05;11.82;;;6.40;;
59310;SDS011;45078;51.654;21.250;2023-12-20T01:17:31;17.63;;;7.72;;
59310;SDS011;45078;51.654;21.250;2023-12-20T01:19:57;15.63;;;7.13;;
59310;SDS011;45078;51.654;21.250;2023-12-20T01:22:23;16.17;;;8.00;;
59310;SDS011;45078;51.654;21.250;2023-12-20T01:24:48;13.93;;;6.80;;
59310;SDS011;45078;51.654;21.250;2023-12-20T01:27:14;14.23;;;6.90;;
59310;SDS011;45078;51.654;21.250;2023-12-20T01:29:40;16.45;;;7.82;;
59310;SDS011;45078;51.654;21.250;2023-12-20T01:32:06;14.00;;;7.35;;
59310;SDS011;45078;51.654;21.250;2023-12-20T01:34:31;11.88;;;6.43;;
59310;SDS011;45078;51.654;21.250;2023-12-20T01:36:57;16.75;;;8.65;;
59310;SDS011;45078;51.654;21.250;2023-12-20T01:39:23;15.68;;;7.38;;
59310;SDS011;45078;51.654;21.250;2023-12-20T01:41:48;18.92;;;8.98;;
59310;SDS011;45078;51.654;21.250;2023-12-20T01:44:14;15.40;;;7.85;;
59310;SDS011;45078;51.654;21.250;2023-12-20T01:46:40;16.48;;;8.60;;
59310;SDS011;45078;51.654;21.250;2023-12-20T01:49:06;14.13;;;8.38;;
59310;SDS011;45078;51.654;21.250;2023-12-20T01:51:32;12.82;;;6.28;;
59310;SDS011;45078;51.654;21.250;2023-12-20T01:53:58;22.25;;;8.18;;
59310;SDS011;45078;51.654;21.250;2023-12-20T01:56:25;18.23;;;7.93;;
59310;SDS011;45078;51.654;21.250;2023-12-20T01:58:52;15.95;;;6.47;;
59310;SDS011;45078;51.654;21.250;2023-12-20T02:01:18;16.35;;;8.30;;
59310;SDS011;45078;51.654;21.250;2023-12-20T02:03:44;17.38;;;9.20;;
59310;SDS011;45078;51.654;21.250;2023-12-20T02:06:10;19.33;;;8.68;;
59310;SDS011;45078;51.654;21.250;2023-12-20T02:08:36;10.73;;;6.57;;
59310;SDS011;45078;51.654;21.250;2023-12-20T02:11:02;19.48;;;8.35;;
59310;SDS011;45078;51.654;21.250;2023-12-20T02:13:28;18.92;;;8.63;;
59310;SDS011;45078;51.654;21.250;2023-12-20T02:15:57;13.65;;;7.88;;
59310;SDS011;45078;51.654;21.250;2023-12-20T02:18:23;18.25;;;7.30;;
59310;SDS011;45078;51.654;21.250;2023-12-20T02:20:48;14.68;;;8.07;;
59310;SDS011;45078;51.654;21.250;2023-12-20T02:23:14;15.35;;;8.32;;
59310;SDS011;45078;51.654;21.250;2023-12-20T02:25:40;17.77;;;8.85;;
59310;SDS011;45078;51.654;21.250;2023-12-20T02:28:05;12.70;;;7.38;;
59310;SDS011;45078;51.654;21.250;2023-12-20T02:30:31;9.88;;;5.90;;
59310;SDS011;45078;51.654;21.250;2023-12-20T02:32:57;13.73;;;7.55;;
59310;SDS011;45078;51.654;21.250;2023-12-20T02:35:26;15.82;;;8.10;;
59310;SDS011;45078;51.654;21.250;2023-12-20T02:37:51;18.00;;;7.68;;
59310;SDS011;45078;51.654;21.250;2023-12-20T02:40:17;16.38;;;9.00;;
59310;SDS011;45078;51.654;21.250;2023-12-20T02:42:42;15.25;;;8.35;;
59310;SDS011;45078;51.654;21.250;2023-12-20T02:45:08;10.60;;;5.95;;
59310;SDS011;45078;51.654;21.250;2023-12-20T02:47:34;15.05;;;7.70;;
59310;SDS011;45078;51.654;21.250;2023-12-20T02:49:59;13.65;;;6.38;;
59310;SDS011;45078;51.654;21.250;2023-12-20T02:52:25;15.18;;;7.10;;
59310;SDS011;45078;51.654;21.250;2023-12-20T02:54:52;9.75;;;6.25;;
59310;SDS011;45078;51.654;21.250;2023-12-20T02:57:18;15.52;;;7.00;;
59310;SDS011;45078;51.654;21.250;2023-12-20T02:59:43;13.18;;;6.68;;
59310;SDS011;45078;51.654;21.250;2023-12-20T03:02:09;15.90;;;7.72;;
59310;SDS011;45078;51.654;21.250;2023-12-20T03:04:34;11.77;;;6.30;;
59310;SDS011;45078;51.654;21.250;2023-12-20T03:07:00;12.65;;;6.55;;
59310;SDS011;45078;51.654;21.250;2023-12-20T03:09:26;15.85;;;8.27;;
59310;SDS011;45078;51.654;21.250;2023-12-20T03:11:51;14.57;;;8.50;;
59310;SDS011;45078;51.654;21.250;2023-12-20T03:14:17;17.38;;;7.78;;
59310;SDS011;45078;51.654;21.250;2023-12-20T03:16:46;13.50;;;6.15;;
59310;SDS011;45078;51.654;21.250;2023-12-20T03:19:16;16.48;;;7.85;;
59310;SDS011;45078;51.654;21.250;2023-12-20T03:21:42;16.55;;;8.45;;
59310;SDS011;45078;51.654;21.250;2023-12-20T03:24:08;16.45;;;8.35;;
59310;SDS011;45078;51.654;21.250;2023-12-20T03:26:33;17.50;;;7.18;;
59310;SDS011;45078;51.654;21.250;2023-12-20T03:28:59;12.77;;;8.38;;
59310;SDS011;45078;51.654;21.250;2023-12-20T03:31:25;18.98;;;8.18;;
59310;SDS011;45078;51.654;21.250;2023-12-20T03:33:50;13.27;;;7.53;;
59310;SDS011;45078;51.654;21.250;2023-12-20T03:36:18;13.85;;;8.05;;
59310;SDS011;45078;51.654;21.250;2023-12-20T03:38:44;16.77;;;8.18;;
59310;SDS011;45078;51.654;21.250;2023-12-20T03:41:10;13.95;;;7.88;;
59310;SDS011;45078;51.654;21.250;2023-12-20T03:43:36;16.92;;;7.68;;
59310;SDS011;45078;51.654;21.250;2023-12-20T03:46:01;12.95;;;7.03;;
59310;SDS011;45078;51.654;21.250;2023-12-20T03:48:28;16.55;;;7.72;;
59310;SDS011;45078;51.654;21.250;2023-12-20T03:50:54;15.75;;;8.27;;
59310;SDS011;45078;51.654;21.250;2023-12-20T03:53:21;17.60;;;8.73;;
59310;SDS011;45078;51.654;21.250;2023-12-20T03:55:47;15.60;;;8.57;;
59310;SDS011;45078;51.654;21.250;2023-12-20T03:58:12;16.38;;;7.82;;
59310;SDS011;45078;51.654;21.250;2023-12-20T04:00:38;13.65;;;7.25;;
59310;SDS011;45078;51.654;21.250;2023-12-20T04:03:04;12.68;;;7.05;;
59310;SDS011;45078;51.654;21.250;2023-12-20T04:05:29;15.90;;;7.40;;
59310;SDS011;45078;51.654;21.250;2023-12-20T04:07:55;11.50;;;6.72;;
59310;SDS011;45078;51.654;21.250;2023-12-20T04:10:21;15.77;;;6.38;;
59310;SDS011;45078;51.654;21.250;2023-12-20T04:12:46;14.88;;;8.18;;
59310;SDS011;45078;51.654;21.250;2023-12-20T04:15:12;13.38;;;7.78;;
59310;SDS011;45078;51.654;21.250;2023-12-20T04:17:37;15.32;;;7.03;;
59310;SDS011;45078;51.654;21.250;2023-12-20T04:20:03;17.15;;;7.57;;
59310;SDS011;45078;51.654;21.250;2023-12-20T04:22:30;15.15;;;7.80;;
59310;SDS011;45078;51.654;21.250;2023-12-20T04:24:55;13.90;;;7.88;;
59310;SDS011;45078;51.654;21.250;2023-12-20T04:27:21;21.30;;;8.90;;
59310;SDS011;45078;51.654;21.250;2023-12-20T04:29:46;13.90;;;7.82;;
59310;SDS011;45078;51.654;21.250;2023-12-20T04:32:12;11.57;;;7.15;;
59310;SDS011;45078;51.654;21.250;2023-12-20T04:34:38;11.80;;;7.45;;
59310;SDS011;45078;51.654;21.250;2023-12-20T04:37:03;13.27;;;7.45;;
59310;SDS011;45078;51.654;21.250;2023-12-20T04:39:29;15.15;;;8.18;;
59310;SDS011;45078;51.654;21.250;2023-12-20T04:41:55;14.73;;;7.57;;
59310;SDS011;45078;51.654;21.250;2023-12-20T04:44:20;13.95;;;8.07;;
59310;SDS011;45078;51.654;21.250;2023-12-20T04:46:46;14.52;;;8.00;;
59310;SDS011;45078;51.654;21.250;2023-12-20T04:49:12;14.60;;;8.10;;
59310;SDS011;45078;51.654;21.250;2023-12-20T04:51:37;14.52;;;6.97;;
59310;SDS011;45078;51.654;21.250;2023-12-20T04:54:03;12.43;;;7.20;;
59310;SDS011;45078;51.654;21.250;2023-12-20T04:56:29;12.68;;;7.35;;
59310;SDS011;45078;51.654;21.250;2023-12-20T04:58:54;11.60;;;6.03;;
59310;SDS011;45078;51.654;21.250;2023-12-20T05:01:20;11.43;;;6.60;;
59310;SDS011;45078;51.654;21.250;2023-12-20T05:03:46;11.02;;;4.80;;
59310;SDS011;45078;51.654;21.250;2023-12-20T05:06:12;10.80;;;6.40;;
59310;SDS011;45078;51.654;21.250;2023-12-20T05:08:38;13.50;;;6.57;;
59310;SDS011;45078;51.654;21.250;2023-12-20T05:11:03;11.82;;;6.63;;
59310;SDS011;45078;51.654;21.250;2023-12-20T05:13:29;8.45;;;4.68;;
59310;SDS011;45078;51.654;21.250;2023-12-20T05:15:55;12.73;;;7.15;;
59310;SDS011;45078;51.654;21.250;2023-12-20T05:18:21;13.43;;;6.45;;
59310;SDS011;45078;51.654;21.250;2023-12-20T05:20:48;9.57;;;5.65;;
59310;SDS011;45078;51.654;21.250;2023-12-20T05:23:14;9.63;;;5.85;;
59310;SDS011;45078;51.654;21.250;2023-12-20T05:25:40;11.23;;;5.90;;
59310;SDS011;45078;51.654;21.250;2023-12-20T05:28:05;10.65;;;5.95;;
59310;SDS011;45078;51.654;21.250;2023-12-20T05:30:31;9.38;;;5.88;;
59310;SDS011;45078;51.654;21.250;2023-12-20T05:32:57;7.05;;;4.65;;
59310;SDS011;45078;51.654;21.250;2023-12-20T05:35:22;11.32;;;6.32;;
59310;SDS011;45078;51.654;21.250;2023-12-20T05:37:48;9.50;;;4.45;;
59310;SDS011;45078;51.654;21.250;2023-12-20T05:40:14;11.13;;;5.80;;
59310;SDS011;45078;51.654;21.250;2023-12-20T05:42:40;10.00;;;5.90;;
59310;SDS011;45078;51.654;21.250;2023-12-20T05:45:06;12.77;;;6.53;;
59310;SDS011;45078;51.654;21.250;2023-12-20T05:47:31;9.93;;;6.00;;
59310;SDS011;45078;51.654;21.250;2023-12-20T05:49:57;9.90;;;5.55;;
59310;SDS011;45078;51.654;21.250;2023-12-20T05:52:23;12.63;;;6.85;;
59310;SDS011;45078;51.654;21.250;2023-12-20T05:54:48;10.40;;;6.03;;
59310;SDS011;45078;51.654;21.250;2023-12-20T05:57:14;10.65;;;6.32;;
59310;SDS011;45078;51.654;21.250;2023-12-20T05:59:40;10.88;;;6.57;;
59310;SDS011;45078;51.654;21.250;2023-12-20T06:02:05;13.45;;;6.95;;
59310;SDS011;45078;51.654;21.250;2023-12-20T06:04:31;12.68;;;7.35;;
59310;SDS011;45078;51.654;21.250;2023-12-20T06:06:57;11.88;;;5.78;;
59310;SDS011;45078;51.654;21.250;2023-12-20T06:09:22;9.27;;;5.35;;
59310;SDS011;45078;51.654;21.250;2023-12-20T06:11:48;10.43;;;6.28;;
59310;SDS011;45078;51.654;21.250;2023-12-20T06:14:14;12.18;;;6.78;;
59310;SDS011;45078;51.654;21.250;2023-12-20T06:16:40;14.40;;;6.32;;
59310;SDS011;45078;51.654;21.250;2023-12-20T06:19:05;10.27;;;6.63;;
59310;SDS011;45078;51.654;21.250;2023-12-20T06:21:31;14.57;;;7.32;;
59310;SDS011;45078;51.654;21.250;2023-12-20T06:23:58;13.75;;;6.93;;
59310;SDS011;45078;51.654;21.250;2023-12-20T06:26:24;12.40;;;7.35;;
59310;SDS011;45078;51.654;21.250;2023-12-20T06:28:50;10.05;;;5.68;;
59310;SDS011;45078;51.654;21.250;2023-12-20T06:31:15;11.77;;;6.57;;
59310;SDS011;45078;51.654;21.250;2023-12-20T06:33:42;11.80;;;6.97;;
59310;SDS011;45078;51.654;21.250;2023-12-20T06:36:11;12.02;;;6.93;;
59310;SDS011;45078;51.654;21.250;2023-12-20T06:38:38;13.02;;;7.10;;
59310;SDS011;45078;51.654;21.250;2023-12-20T06:41:03;14.35;;;7.32;;
59310;SDS011;45078;51.654;21.250;2023-12-20T06:43:29;9.27;;;6.20;;
59310;SDS011;45078;51.654;21.250;2023-12-20T06:45:56;12.77;;;6.88;;
59310;SDS011;45078;51.654;21.250;2023-12-20T06:48:21;12.25;;;7.28;;
59310;SDS011;45078;51.654;21.250;2023-12-20T06:50:47;11.60;;;6.68;;
59310;SDS011;45078;51.654;21.250;2023-12-20T06:53:13;13.02;;;7.10;;
59310;SDS011;45078;51.654;21.250;2023-12-20T06:55:38;7.82;;;4.68;;
59310;SDS011;45078;51.654;21.250;2023-12-20T06:58:04;11.77;;;5.53;;
59310;SDS011;45078;51.654;21.250;2023-12-20T07:00:30;14.52;;;7.13;;
59310;SDS011;45078;51.654;21.250;2023-12-20T07:02:56;12.77;;;7.15;;
59310;SDS011;45078;51.654;21.250;2023-12-20T07:05:21;11.55;;;6.22;;
59310;SDS011;45078;51.654;21.250;2023-12-20T07:07:47;13.48;;;7.72;;
59310;SDS011;45078;51.654;21.250;2023-12-20T07:10:13;12.13;;;6.38;;
59310;SDS011;45078;51.654;21.250;2023-12-20T07:12:39;10.32;;;6.00;;
59310;SDS011;45078;51.654;21.250;2023-12-20T07:15:04;11.55;;;6.53;;
59310;SDS011;45078;51.654;21.250;2023-12-20T07:17:32;11.68;;;6.53;;
59310;SDS011;45078;51.654;21.250;2023-12-20T07:19:58;11.35;;;5.45;;
59310;SDS011;45078;51.654;21.250;2023-12-20T07:22:28;12.40;;;5.75;;
59310;SDS011;45078;51.654;21.250;2023-12-20T07:24:57;10.32;;;5.43;;
59310;SDS011;45078;51.654;21.250;2023-12-20T07:27:23;9.20;;;4.85;;
59310;SDS011;45078;51.654;21.250;2023-12-20T07:29:49;8.02;;;4.75;;
59310;SDS011;45078;51.654;21.250;2023-12-20T07:32:15;8.77;;;4.65;;
59310;SDS011;45078;51.654;21.250;2023-12-20T07:34:40;8.32;;;5.15;;
59310;SDS011;45078;51.654;21.250;2023-12-20T07:37:06;10.88;;;5.47;;
59310;SDS011;45078;51.654;21.250;2023-12-20T07:39:31;6.90;;;4.65;;
59310;SDS011;45078;51.654;21.250;2023-12-20T07:41:57;9.90;;;5.85;;
59310;SDS011;45078;51.654;21.250;2023-12-20T07:44:23;11.18;;;6.57;;
59310;SDS011;45078;51.654;21.250;2023-12-20T07:46:48;10.10;;;5.78;;
59310;SDS011;45078;51.654;21.250;2023-12-20T07:49:15;11.05;;;6.45;;
59310;SDS011;45078;51.654;21.250;2023-12-20T07:51:40;10.43;;;5.43;;
59310;SDS011;45078;51.654;21.250;2023-12-20T07:54:06;8.80;;;4.85;;
59310;SDS011;45078;51.654;21.250;2023-12-20T07:56:33;9.20;;;4.80;;
59310;SDS011;45078;51.654;21.250;2023-12-20T07:58:58;8.30;;;3.90;;
59310;SDS011;45078;51.654;21.250;2023-12-20T08:01:24;7.90;;;4.32;;
59310;SDS011;45078;51.654;21.250;2023-12-20T08:03:50;7.15;;;4.05;;
59310;SDS011;45078;51.654;21.250;2023-12-20T08:06:15;4.90;;;3.40;;
59310;SDS011;45078;51.654;21.250;2023-12-20T08:08:42;5.60;;;3.00;;
59310;SDS011;45078;51.654;21.250;2023-12-20T08:11:08;7.25;;;3.10;;
59310;SDS011;45078;51.654;21.250;2023-12-20T08:13:33;6.07;;;3.00;;
59310;SDS011;45078;51.654;21.250;2023-12-20T08:15:59;5.10;;;2.15;;
59310;SDS011;45078;51.654;21.250;2023-12-20T08:18:24;4.80;;;2.50;;
59310;SDS011;45078;51.654;21.250;2023-12-20T08:20:50;3.65;;;2.20;;
59310;SDS011;45078;51.654;21.250;2023-12-20T08:23:18;4.65;;;2.10;;
59310;SDS011;45078;51.654;21.250;2023-12-20T08:25:46;4.07;;;2.15;;
59310;SDS011;45078;51.654;21.250;2023-12-20T08:28:11;3.55;;;2.28;;
59310;SDS011;45078;51.654;21.250;2023-12-20T08:30:37;6.70;;;2.65;;
59310;SDS011;45078;51.654;21.250;2023-12-20T08:33:03;5.10;;;2.08;;
59310;SDS011;45078;51.654;21.250;2023-12-20T08:35:29;4.00;;;2.50;;
59310;SDS011;45078;51.654;21.250;2023-12-20T08:37:56;4.43;;;2.53;;
59310;SDS011;45078;51.654;21.250;2023-12-20T08:40:21;4.07;;;2.42;;
59310;SDS011;45078;51.654;21.250;2023-12-20T08:42:47;4.63;;;2.40;;
59310;SDS011;45078;51.654;21.250;2023-12-20T08:45:13;4.18;;;2.58;;
59310;SDS011;45078;51.654;21.250;2023-12-20T08:47:38;3.90;;;2.47;;
59310;SDS011;45078;51.654;21.250;2023-12-20T08:50:06;4.35;;;2.78;;
59310;SDS011;45078;51.654;21.250;2023-12-20T08:52:32;5.45;;;2.72;;
59310;SDS011;45078;51.654;21.250;2023-12-20T08:54:58;4.22;;;2.63;;
59310;SDS011;45078;51.654;21.250;2023-12-20T08:57:23;5.50;;;3.20;;
59310;SDS011;45078;51.654;21.250;2023-12-20T08:59:50;5.72;;;3.30;;
59310;SDS011;45078;51.654;21.250;2023-12-20T09:02:16;5.05;;;2.55;;
59310;SDS011;45078;51.654;21.250;2023-12-20T09:04:42;6.93;;;3.35;;
59310;SDS011;45078;51.654;21.250;2023-12-20T09:07:26;5.35;;;2.65;;
59310;SDS011;45078;51.654;21.250;2023-12-20T09:09:55;4.53;;;2.40;;
59310;SDS011;45078;51.654;21.250;2023-12-20T09:12:20;5.90;;;3.45;;
59310;SDS011;45078;51.654;21.250;2023-12-20T09:14:47;4.60;;;2.42;;
59310;SDS011;45078;51.654;21.250;2023-12-20T09:17:14;6.32;;;2.45;;
59310;SDS011;45078;51.654;21.250;2023-12-20T09:19:41;4.07;;;2.53;;
59310;SDS011;45078;51.654;21.250;2023-12-20T09:22:08;6.50;;;2.90;;
59310;SDS011;45078;51.654;21.250;2023-12-20T09:24:34;5.65;;;2.72;;
59310;SDS011;45078;51.654;21.250;2023-12-20T09:27:00;4.35;;;2.55;;
59310;SDS011;45078;51.654;21.250;2023-12-20T09:29:26;4.03;;;2.15;;
59310;SDS011;45078;51.654;21.250;2023-12-20T09:31:51;4.57;;;2.20;;
59310;SDS011;45078;51.654;21.250;2023-12-20T09:34:17;3.15;;;1.83;;
59310;SDS011;45078;51.654;21.250;2023-12-20T09:36:43;4.20;;;2.25;;
59310;SDS011;45078;51.654;21.250;2023-12-20T09:39:15;4.47;;;2.22;;
59310;SDS011;45078;51.654;21.250;2023-12-20T09:41:58;3.60;;;1.92;;
59310;SDS011;45078;51.654;21.250;2023-12-20T09:44:26;3.50;;;1.98;;
59310;SDS011;45078;51.654;21.250;2023-12-20T09:46:53;4.13;;;2.17;;
59310;SDS011;45078;51.654;21.250;2023-12-20T09:49:20;3.80;;;2.03;;
59310;SDS011;45078;51.654;21.250;2023-12-20T09:51:46;4.22;;;2.05;;
59310;SDS011;45078;51.654;21.250;2023-12-20T09:54:16;2.80;;;2.00;;
59310;SDS011;45078;51.654;21.250;2023-12-20T09:56:42;2.83;;;1.80;;
59310;SDS011;45078;51.654;21.250;2023-12-20T09:59:09;3.15;;;1.95;;
59310;SDS011;45078;51.654;21.250;2023-12-20T10:01:35;3.67;;;2.03;;
59310;SDS011;45078;51.654;21.250;2023-12-20T10:04:06;2.78;;;1.77;;
59310;SDS011;45078;51.654;21.250;2023-12-20T10:06:37;3.72;;;1.98;;
59310;SDS011;45078;51.654;21.250;2023-12-20T10:09:04;3.95;;;2.42;;
59310;SDS011;45078;51.654;21.250;2023-12-20T10:11:30;3.47;;;1.90;;
59310;SDS011;45078;51.654;21.250;2023-12-20T10:13:59;3.47;;;2.00;;
59310;SDS011;45078;51.654;21.250;2023-12-20T10:16:28;3.28;;;1.90;;
59310;SDS011;45078;51.654;21.250;2023-12-20T10:18:54;2.83;;;1.70;;
59310;SDS011;45078;51.654;21.250;2023-12-20T10:21:21;2.72;;;1.77;;
59310;SDS011;45078;51.654;21.250;2023-12-20T10:23:48;2.38;;;1.42;;
59310;SDS011;45078;51.654;21.250;2023-12-20T10:26:20;2.30;;;1.58;;
59310;SDS011;45078;51.654;21.250;2023-12-20T10:28:46;2.70;;;1.60;;
59310;SDS011;45078;51.654;21.250;2023-12-20T10:31:26;2.42;;;1.60;;
59310;SDS011;45078;51.654;21.250;2023-12-20T10:33:56;2.95;;;1.80;;
59310;SDS011;45078;51.654;21.250;2023-12-20T10:36:24;2.90;;;1.20;;
59310;SDS011;45078;51.654;21.250;2023-12-20T10:38:52;2.92;;;1.50;;
59310;SDS011;45078;51.654;21.250;2023-12-20T10:41:28;1.83;;;1.33;;
59310;SDS011;45078;51.654;21.250;2023-12-20T10:44:02;2.95;;;1.60;;
59310;SDS011;45078;51.654;21.250;2023-12-20T10:46:29;3.47;;;1.75;;
59310;SDS011;45078;51.654;21.250;2023-12-20T10:48:57;3.17;;;1.58;;
59310;SDS011;45078;51.654;21.250;2023-12-20T10:51:23;2.35;;;1.50;;
59310;SDS011;45078;51.654;21.250;2023-12-20T10:53:51;3.30;;;1.88;;
59310;SDS011;45078;51.654;21.250;2023-12-20T10:56:18;2.45;;;1.35;;
59310;SDS011;45078;51.654;21.250;2023-12-20T10:58:44;3.72;;;1.67;;
59310;SDS011;45078;51.654;21.250;2023-12-20T11:01:14;3.28;;;1.77;;
59310;SDS011;45078;51.654;21.250;2023-12-20T11:03:43;3.28;;;1.55;;
59310;SDS011;45078;51.654;21.250;2023-12-20T11:11:45;3.88;;;1.80;;
59310;SDS011;45078;51.654;21.250;2023-12-20T11:14:22;4.22;;;1.40;;
59310;SDS011;45078;51.654;21.250;2023-12-20T11:16:51;3.08;;;1.70;;
59310;SDS011;45078;51.654;21.250;2023-12-20T11:19:38;3.35;;;1.52;;
59310;SDS011;45078;51.654;21.250;2023-12-20T11:22:22;2.05;;;1.13;;
59310;SDS011;45078;51.654;21.250;2023-12-20T11:24:56;2.38;;;1.25;;
59310;SDS011;45078;51.654;21.250;2023-12-20T11:27:27;3.10;;;1.73;;
59310;SDS011;45078;51.654;21.250;2023-12-20T11:29:54;1.55;;;1.20;;
59310;SDS011;45078;51.654;21.250;2023-12-20T11:34:54;2.67;;;1.55;;
59310;SDS011;45078;51.654;21.250;2023-12-20T11:37:29;2.17;;;1.50;;
59310;SDS011;45078;51.654;21.250;2023-12-20T11:40:17;2.13;;;1.30;;
59310;SDS011;45078;51.654;21.250;2023-12-20T11:42:48;2.40;;;1.35;;
59310;SDS011;45078;51.654;21.250;2023-12-20T11:45:15;2.90;;;1.58;;
59310;SDS011;45078;51.654;21.250;2023-12-20T11:47:46;4.60;;;1.42;;
59310;SDS011;45078;51.654;21.250;2023-12-20T11:50:12;3.45;;;1.73;;
59310;SDS011;45078;51.654;21.250;2023-12-20T11:52:38;3.22;;;1.80;;
59310;SDS011;45078;51.654;21.250;2023-12-20T11:55:03;3.90;;;1.80;;
59310;SDS011;45078;51.654;21.250;2023-12-20T11:57:30;2.22;;;1.50;;
59310;SDS011;45078;51.654;21.250;2023-12-20T11:59:56;2.60;;;1.67;;
59310;SDS011;45078;51.654;21.250;2023-12-20T12:02:22;1.92;;;1.08;;
59310;SDS011;45078;51.654;21.250;2023-12-20T12:04:49;2.35;;;1.45;;
59310;SDS011;45078;51.654;21.250;2023-12-20T12:07:17;3.13;;;1.73;;
59310;SDS011;45078;51.654;21.250;2023-12-20T12:09:43;2.40;;;1.33;;
59310;SDS011;45078;51.654;21.250;2023-12-20T12:12:09;3.17;;;1.90;;
59310;SDS011;45078;51.654;21.250;2023-12-20T12:14:37;2.60;;;1.50;;
59310;SDS011;45078;51.654;21.250;2023-12-20T12:17:03;3.65;;;1.90;;
59310;SDS011;45078;51.654;21.250;2023-12-20T12:19:29;2.97;;;1.63;;
59310;SDS011;45078;51.654;21.250;2023-12-20T12:22:04;2.72;;;1.92;;
59310;SDS011;45078;51.654;21.250;2023-12-20T12:24:41;2.25;;;1.58;;
59310;SDS011;45078;51.654;21.250;2023-12-20T12:27:10;1.90;;;1.48;;
59310;SDS011;45078;51.654;21.250;2023-12-20T12:29:37;4.40;;;2.00;;
59310;SDS011;45078;51.654;21.250;2023-12-20T12:32:07;3.65;;;1.63;;
59310;SDS011;45078;51.654;21.250;2023-12-20T12:34:34;4.60;;;2.42;;
59310;SDS011;45078;51.654;21.250;2023-12-20T12:37:00;2.90;;;2.00;;
59310;SDS011;45078;51.654;21.250;2023-12-20T12:39:26;4.85;;;2.05;;
59310;SDS011;45078;51.654;21.250;2023-12-20T12:41:52;4.10;;;2.10;;
59310;SDS011;45078;51.654;21.250;2023-12-20T12:44:19;3.10;;;1.77;;
59310;SDS011;45078;51.654;21.250;2023-12-20T12:46:48;4.53;;;2.30;;
59310;SDS011;45078;51.654;21.250;2023-12-20T12:49:18;4.65;;;2.30;;
59310;SDS011;45078;51.654;21.250;2023-12-20T12:51:46;3.92;;;2.10;;
59310;SDS011;45078;51.654;21.250;2023-12-20T12:54:12;4.07;;;2.25;;
59310;SDS011;45078;51.654;21.250;2023-12-20T12:56:40;4.13;;;2.13;;
59310;SDS011;45078;51.654;21.250;2023-12-20T12:59:06;3.35;;;2.10;;
59310;SDS011;45078;51.654;21.250;2023-12-20T13:01:31;4.95;;;1.88;;
59310;SDS011;45078;51.654;21.250;2023-12-20T13:03:57;2.53;;;1.65;;
59310;SDS011;45078;51.654;21.250;2023-12-20T13:06:23;4.30;;;2.20;;
59310;SDS011;45078;51.654;21.250;2023-12-20T13:08:49;4.65;;;2.75;;
59310;SDS011;45078;51.654;21.250;2023-12-20T13:11:15;3.30;;;2.03;;
59310;SDS011;45078;51.654;21.250;2023-12-20T13:13:40;3.78;;;2.40;;
59310;SDS011;45078;51.654;21.250;2023-12-20T13:16:06;3.00;;;1.83;;
59310;SDS011;45078;51.654;21.250;2023-12-20T13:18:32;5.60;;;2.40;;
59310;SDS011;45078;51.654;21.250;2023-12-20T13:20:58;4.30;;;2.30;;
59310;SDS011;45078;51.654;21.250;2023-12-20T13:23:23;5.32;;;2.50;;
59310;SDS011;45078;51.654;21.250;2023-12-20T13:25:49;4.95;;;2.13;;
59310;SDS011;45078;51.654;21.250;2023-12-20T13:28:15;3.20;;;1.90;;
59310;SDS011;45078;51.654;21.250;2023-12-20T13:30:41;3.90;;;2.05;;
59310;SDS011;45078;51.654;21.250;2023-12-20T13:33:06;4.43;;;2.30;;
59310;SDS011;45078;51.654;21.250;2023-12-20T13:35:33;4.13;;;1.83;;
59310;SDS011;45078;51.654;21.250;2023-12-20T13:37:59;3.22;;;2.03;;
59310;SDS011;45078;51.654;21.250;2023-12-20T13:40:25;3.03;;;1.83;;
59310;SDS011;45078;51.654;21.250;2023-12-20T13:42:51;3.60;;;2.05;;
59310;SDS011;45078;51.654;21.250;2023-12-20T13:45:17;3.25;;;1.65;;
59310;SDS011;45078;51.654;21.250;2023-12-20T13:47:43;3.33;;;1.65;;
59310;SDS011;45078;51.654;21.250;2023-12-20T13:50:09;3.42;;;1.77;;
59310;SDS011;45078;51.654;21.250;2023-12-20T13:52:34;2.10;;;1.27;;
59310;SDS011;45078;51.654;21.250;2023-12-20T13:55:00;4.50;;;1.60;;
59310;SDS011;45078;51.654;21.250;2023-12-20T13:57:26;2.35;;;1.65;;
59310;SDS011;45078;51.654;21.250;2023-12-20T13:59:54;3.03;;;1.55;;
59310;SDS011;45078;51.654;21.250;2023-12-20T14:02:22;4.50;;;1.30;;
59310;SDS011;45078;51.654;21.250;2023-12-20T14:04:48;4.05;;;1.70;;
59310;SDS011;45078;51.654;21.250;2023-12-20T14:07:13;4.28;;;1.80;;
59310;SDS011;45078;51.654;21.250;2023-12-20T14:09:39;2.75;;;1.58;;
59310;SDS011;45078;51.654;21.250;2023-12-20T14:12:10;2.50;;;1.67;;
59310;SDS011;45078;51.654;21.250;2023-12-20T14:14:39;3.85;;;1.92;;
59310;SDS011;45078;51.654;21.250;2023-12-20T14:17:05;3.58;;;1.73;;
59310;SDS011;45078;51.654;21.250;2023-12-20T14:19:34;4.03;;;2.05;;
59310;SDS011;45078;51.654;21.250;2023-12-20T14:21:59;2.97;;;1.88;;
59310;SDS011;45078;51.654;21.250;2023-12-20T14:24:29;2.60;;;1.67;;
59310;SDS011;45078;51.654;21.250;2023-12-20T14:26:55;4.85;;;2.88;;
59310;SDS011;45078;51.654;21.250;2023-12-20T14:29:20;3.20;;;1.77;;
59310;SDS011;45078;51.654;21.250;2023-12-20T14:31:46;4.53;;;2.35;;
59310;SDS011;45078;51.654;21.250;2023-12-20T14:34:12;6.20;;;2.97;;
59310;SDS011;45078;51.654;21.250;2023-12-20T14:36:37;4.50;;;3.05;;
59310;SDS011;45078;51.654;21.250;2023-12-20T14:39:03;6.63;;;2.63;;
59310;SDS011;45078;51.654;21.250;2023-12-20T14:41:30;5.90;;;3.28;;
59310;SDS011;45078;51.654;21.250;2023-12-20T14:43:55;8.02;;;3.60;;
59310;SDS011;45078;51.654;21.250;2023-12-20T14:46:21;6.40;;;3.45;;